sensor_id;sensor_type;location;lat;lon;timestamp;P1;durP1;ratioP1;P2;durP2;ratioP2
37771;SDS011;23610;59.380;24.642;2023-03-01T00:03:21;12.35;;;1.63;;
37771;SDS011;23610;59.380;24.642;2023-03-01T00:08:24;6.43;;;1.73;;
37771;SDS011;23610;59.380;24.642;2023-03-01T00:13:28;7.13;;;1.90;;
37771;SDS011;23610;59.380;24.642;2023-03-01T00:18:31;32.63;;;9.73;;
37771;SDS011;23610;59.380;24.642;2023-03-01T00:23:34;5.13;;;2.88;;
37771;SDS011;23610;59.380;24.642;2023-03-01T00:28:37;10.32;;;1.52;;
37771;SDS011;23610;59.380;24.642;2023-03-01T00:33:42;10.13;;;1.58;;
37771;SDS011;23610;59.380;24.642;2023-03-01T00:38:45;13.43;;;2.58;;
37771;SDS011;23610;59.380;24.642;2023-03-01T00:43:48;7.68;;;1.40;;
37771;SDS011;23610;59.380;24.642;2023-03-01T00:48:51;11.68;;;1.83;;
37771;SDS011;23610;59.380;24.642;2023-03-01T00:53:56;10.55;;;2.28;;
37771;SDS011;23610;59.380;24.642;2023-03-01T00:59:01;6.32;;;1.85;;
37771;SDS011;23610;59.380;24.642;2023-03-01T01:04:05;30.17;;;3.30;;
37771;SDS011;23610;59.380;24.642;2023-03-01T01:09:13;9.75;;;1.85;;
37771;SDS011;23610;59.380;24.642;2023-03-01T01:14:21;8.60;;;2.13;;
37771;SDS011;23610;59.380;24.642;2023-03-01T01:19:24;15.35;;;1.92;;
37771;SDS011;23610;59.380;24.642;2023-03-01T01:29:31;9.35;;;1.70;;
37771;SDS011;23610;59.380;24.642;2023-03-01T01:34:35;10.85;;;1.58;;
37771;SDS011;23610;59.380;24.642;2023-03-01T01:39:37;9.23;;;1.58;;
37771;SDS011;23610;59.380;24.642;2023-03-01T01:44:40;8.50;;;1.63;;
37771;SDS011;23610;59.380;24.642;2023-03-01T01:49:56;11.18;;;1.58;;
37771;SDS011;23610;59.380;24.642;2023-03-01T01:55:03;14.30;;;1.92;;
37771;SDS011;23610;59.380;24.642;2023-03-01T02:00:14;11.30;;;2.03;;
37771;SDS011;23610;59.380;24.642;2023-03-01T02:10:42;10.40;;;1.35;;
37771;SDS011;23610;59.380;24.642;2023-03-01T02:15:45;11.00;;;1.90;;
37771;SDS011;23610;59.380;24.642;2023-03-01T02:25:52;7.53;;;1.35;;
37771;SDS011;23610;59.380;24.642;2023-03-01T02:31:09;7.53;;;2.58;;
37771;SDS011;23610;59.380;24.642;2023-03-01T02:37:19;7.80;;;1.17;;
37771;SDS011;23610;59.380;24.642;2023-03-01T02:42:05;6.95;;;1.58;;
37771;SDS011;23610;59.380;24.642;2023-03-01T02:47:10;19.60;;;1.73;;
37771;SDS011;23610;59.380;24.642;2023-03-01T03:02:53;5.20;;;1.27;;
37771;SDS011;23610;59.380;24.642;2023-03-01T03:07:59;7.63;;;1.13;;
37771;SDS011;23610;59.380;24.642;2023-03-01T03:13:10;10.73;;;1.88;;
37771;SDS011;23610;59.380;24.642;2023-03-01T03:18:16;10.27;;;1.30;;
37771;SDS011;23610;59.380;24.642;2023-03-01T03:23:20;7.18;;;1.52;;
37771;SDS011;23610;59.380;24.642;2023-03-01T03:28:23;10.75;;;1.60;;
37771;SDS011;23610;59.380;24.642;2023-03-01T03:33:26;4.78;;;1.42;;
37771;SDS011;23610;59.380;24.642;2023-03-01T03:38:29;8.23;;;1.02;;
37771;SDS011;23610;59.380;24.642;2023-03-01T03:43:33;7.70;;;0.98;;
37771;SDS011;23610;59.380;24.642;2023-03-01T03:48:39;5.72;;;1.40;;
37771;SDS011;23610;59.380;24.642;2023-03-01T03:53:44;5.88;;;1.40;;
37771;SDS011;23610;59.380;24.642;2023-03-01T03:58:47;9.02;;;1.60;;
37771;SDS011;23610;59.380;24.642;2023-03-01T04:03:50;7.15;;;1.15;;
37771;SDS011;23610;59.380;24.642;2023-03-01T04:08:55;8.90;;;1.75;;
37771;SDS011;23610;59.380;24.642;2023-03-01T04:14:00;10.43;;;2.17;;
37771;SDS011;23610;59.380;24.642;2023-03-01T04:19:03;9.55;;;1.67;;
37771;SDS011;23610;59.380;24.642;2023-03-01T04:24:07;9.02;;;1.98;;
37771;SDS011;23610;59.380;24.642;2023-03-01T04:29:11;11.65;;;2.10;;
37771;SDS011;23610;59.380;24.642;2023-03-01T04:34:13;13.35;;;1.55;;
37771;SDS011;23610;59.380;24.642;2023-03-01T04:39:16;7.25;;;2.20;;
37771;SDS011;23610;59.380;24.642;2023-03-01T04:44:18;5.28;;;1.20;;
37771;SDS011;23610;59.380;24.642;2023-03-01T04:49:21;4.50;;;1.25;;
37771;SDS011;23610;59.380;24.642;2023-03-01T04:54:24;6.90;;;1.05;;
37771;SDS011;23610;59.380;24.642;2023-03-01T04:59:27;4.28;;;1.05;;
37771;SDS011;23610;59.380;24.642;2023-03-01T05:04:30;5.43;;;1.00;;
37771;SDS011;23610;59.380;24.642;2023-03-01T05:09:33;17.55;;;1.25;;
37771;SDS011;23610;59.380;24.642;2023-03-01T05:14:36;11.93;;;1.42;;
37771;SDS011;23610;59.380;24.642;2023-03-01T05:19:39;6.65;;;1.40;;
37771;SDS011;23610;59.380;24.642;2023-03-01T05:24:44;8.13;;;1.70;;
37771;SDS011;23610;59.380;24.642;2023-03-01T05:29:48;7.63;;;1.03;;
37771;SDS011;23610;59.380;24.642;2023-03-01T05:34:51;7.22;;;3.17;;
37771;SDS011;23610;59.380;24.642;2023-03-01T05:39:53;13.73;;;1.45;;
37771;SDS011;23610;59.380;24.642;2023-03-01T05:44:56;8.13;;;1.17;;
37771;SDS011;23610;59.380;24.642;2023-03-01T05:49:59;7.22;;;1.67;;
37771;SDS011;23610;59.380;24.642;2023-03-01T05:55:01;9.50;;;1.45;;
37771;SDS011;23610;59.380;24.642;2023-03-01T06:00:04;9.95;;;0.98;;
37771;SDS011;23610;59.380;24.642;2023-03-01T06:05:12;5.60;;;1.00;;
37771;SDS011;23610;59.380;24.642;2023-03-01T06:10:17;21.77;;;5.80;;
37771;SDS011;23610;59.380;24.642;2023-03-01T06:15:21;7.35;;;1.08;;
37771;SDS011;23610;59.380;24.642;2023-03-01T06:20:25;9.10;;;1.27;;
37771;SDS011;23610;59.380;24.642;2023-03-01T06:25:30;6.63;;;2.70;;
37771;SDS011;23610;59.380;24.642;2023-03-01T06:30:33;7.28;;;0.90;;
37771;SDS011;23610;59.380;24.642;2023-03-01T06:35:36;5.35;;;1.92;;
37771;SDS011;23610;59.380;24.642;2023-03-01T06:40:39;6.10;;;1.40;;
37771;SDS011;23610;59.380;24.642;2023-03-01T06:45:42;7.32;;;2.22;;
37771;SDS011;23610;59.380;24.642;2023-03-01T06:50:44;4.18;;;1.83;;
37771;SDS011;23610;59.380;24.642;2023-03-01T06:55:47;12.57;;;1.50;;
37771;SDS011;23610;59.380;24.642;2023-03-01T07:00:54;7.82;;;1.75;;
37771;SDS011;23610;59.380;24.642;2023-03-01T07:05:57;4.93;;;1.00;;
37771;SDS011;23610;59.380;24.642;2023-03-01T07:10:59;5.75;;;1.17;;
37771;SDS011;23610;59.380;24.642;2023-03-01T07:16:03;3.63;;;0.80;;
37771;SDS011;23610;59.380;24.642;2023-03-01T07:21:08;3.75;;;1.27;;
37771;SDS011;23610;59.380;24.642;2023-03-01T07:26:13;6.45;;;0.77;;
37771;SDS011;23610;59.380;24.642;2023-03-01T07:31:16;6.18;;;0.95;;
37771;SDS011;23610;59.380;24.642;2023-03-01T07:36:18;2.83;;;1.10;;
37771;SDS011;23610;59.380;24.642;2023-03-01T07:41:21;3.63;;;1.35;;
37771;SDS011;23610;59.380;24.642;2023-03-01T07:46:23;2.53;;;0.73;;
37771;SDS011;23610;59.380;24.642;2023-03-01T07:51:26;3.08;;;1.38;;
37771;SDS011;23610;59.380;24.642;2023-03-01T07:56:29;7.68;;;3.58;;
37771;SDS011;23610;59.380;24.642;2023-03-01T08:01:32;13.25;;;2.58;;
37771;SDS011;23610;59.380;24.642;2023-03-01T08:06:35;2.83;;;0.95;;
37771;SDS011;23610;59.380;24.642;2023-03-01T08:11:38;4.72;;;1.10;;
37771;SDS011;23610;59.380;24.642;2023-03-01T08:16:41;3.22;;;1.33;;
37771;SDS011;23610;59.380;24.642;2023-03-01T08:21:44;4.70;;;1.95;;
37771;SDS011;23610;59.380;24.642;2023-03-01T08:26:46;2.13;;;0.80;;
37771;SDS011;23610;59.380;24.642;2023-03-01T08:31:49;2.20;;;0.95;;
37771;SDS011;23610;59.380;24.642;2023-03-01T08:36:52;9.27;;;0.80;;
37771;SDS011;23610;59.380;24.642;2023-03-01T08:41:55;19.55;;;1.13;;
37771;SDS011;23610;59.380;24.642;2023-03-01T08:47:01;1.95;;;0.35;;
37771;SDS011;23610;59.380;24.642;2023-03-01T08:52:05;2.65;;;0.50;;
37771;SDS011;23610;59.380;24.642;2023-03-01T08:57:08;1.45;;;0.43;;
37771;SDS011;23610;59.380;24.642;2023-03-01T09:02:12;8.07;;;1.00;;
37771;SDS011;23610;59.380;24.642;2023-03-01T09:07:18;3.03;;;0.77;;
37771;SDS011;23610;59.380;24.642;2023-03-01T09:12:20;0.98;;;0.50;;
37771;SDS011;23610;59.380;24.642;2023-03-01T09:17:23;3.03;;;0.88;;
37771;SDS011;23610;59.380;24.642;2023-03-01T09:22:26;4.60;;;0.68;;
37771;SDS011;23610;59.380;24.642;2023-03-01T09:27:29;4.47;;;0.75;;
37771;SDS011;23610;59.380;24.642;2023-03-01T09:32:31;7.47;;;1.00;;
37771;SDS011;23610;59.380;24.642;2023-03-01T09:37:35;5.75;;;0.95;;
37771;SDS011;23610;59.380;24.642;2023-03-01T09:42:44;2.05;;;0.60;;
37771;SDS011;23610;59.380;24.642;2023-03-01T09:48:01;4.03;;;0.70;;
37771;SDS011;23610;59.380;24.642;2023-03-01T09:53:06;6.65;;;2.08;;
37771;SDS011;23610;59.380;24.642;2023-03-01T10:03:39;2.65;;;0.70;;
37771;SDS011;23610;59.380;24.642;2023-03-01T10:08:53;6.28;;;1.23;;
37771;SDS011;23610;59.380;24.642;2023-03-01T10:25:36;2.85;;;0.90;;
37771;SDS011;23610;59.380;24.642;2023-03-01T10:30:58;1.48;;;0.40;;
37771;SDS011;23610;59.380;24.642;2023-03-01T10:36:01;3.13;;;0.70;;
37771;SDS011;23610;59.380;24.642;2023-03-01T10:41:05;0.65;;;0.40;;
37771;SDS011;23610;59.380;24.642;2023-03-01T10:51:30;2.88;;;0.50;;
37771;SDS011;23610;59.380;24.642;2023-03-01T10:56:45;2.85;;;0.50;;
37771;SDS011;23610;59.380;24.642;2023-03-01T11:02:17;1.02;;;0.70;;
37771;SDS011;23610;59.380;24.642;2023-03-01T11:07:31;2.28;;;0.40;;
37771;SDS011;23610;59.380;24.642;2023-03-01T11:13:05;0.95;;;0.45;;
37771;SDS011;23610;59.380;24.642;2023-03-01T11:18:20;4.70;;;1.38;;
37771;SDS011;23610;59.380;24.642;2023-03-01T11:23:37;2.33;;;0.65;;
37771;SDS011;23610;59.380;24.642;2023-03-01T11:28:43;7.30;;;0.88;;
37771;SDS011;23610;59.380;24.642;2023-03-01T11:39:19;2.17;;;1.00;;
37771;SDS011;23610;59.380;24.642;2023-03-01T11:44:43;8.20;;;3.85;;
37771;SDS011;23610;59.380;24.642;2023-03-01T12:01:08;4.18;;;2.92;;
37771;SDS011;23610;59.380;24.642;2023-03-01T12:57:12;6.13;;;1.48;;
37771;SDS011;23610;59.380;24.642;2023-03-01T13:02:27;15.25;;;2.88;;
37771;SDS011;23610;59.380;24.642;2023-03-01T13:13:43;2.70;;;1.80;;
37771;SDS011;23610;59.380;24.642;2023-03-01T13:29:47;4.95;;;0.60;;
37771;SDS011;23610;59.380;24.642;2023-03-01T13:35:02;2.90;;;0.50;;
37771;SDS011;23610;59.380;24.642;2023-03-01T13:45:36;2.45;;;0.73;;
37771;SDS011;23610;59.380;24.642;2023-03-01T13:50:47;3.33;;;0.73;;
37771;SDS011;23610;59.380;24.642;2023-03-01T13:56:01;4.60;;;1.10;;
37771;SDS011;23610;59.380;24.642;2023-03-01T14:01:07;4.03;;;1.90;;
37771;SDS011;23610;59.380;24.642;2023-03-01T14:06:25;6.80;;;1.13;;
37771;SDS011;23610;59.380;24.642;2023-03-01T14:22:59;9.70;;;2.33;;
37771;SDS011;23610;59.380;24.642;2023-03-01T14:28:26;4.47;;;1.92;;
37771;SDS011;23610;59.380;24.642;2023-03-01T14:33:39;10.52;;;2.97;;
37771;SDS011;23610;59.380;24.642;2023-03-01T14:38:45;4.17;;;1.77;;
37771;SDS011;23610;59.380;24.642;2023-03-01T14:43:55;5.82;;;2.10;;
37771;SDS011;23610;59.380;24.642;2023-03-01T14:49:17;11.98;;;6.90;;
37771;SDS011;23610;59.380;24.642;2023-03-01T14:54:24;9.40;;;6.22;;
37771;SDS011;23610;59.380;24.642;2023-03-01T14:59:40;8.70;;;3.92;;
37771;SDS011;23610;59.380;24.642;2023-03-01T15:04:47;6.28;;;0.98;;
37771;SDS011;23610;59.380;24.642;2023-03-01T15:09:59;4.18;;;0.80;;
37771;SDS011;23610;59.380;24.642;2023-03-01T15:15:21;11.30;;;3.78;;
37771;SDS011;23610;59.380;24.642;2023-03-01T15:20:31;2.05;;;1.35;;
37771;SDS011;23610;59.380;24.642;2023-03-01T15:25:36;2.50;;;0.90;;
37771;SDS011;23610;59.380;24.642;2023-03-01T15:30:45;3.47;;;1.02;;
37771;SDS011;23610;59.380;24.642;2023-03-01T15:35:57;2.13;;;1.45;;
37771;SDS011;23610;59.380;24.642;2023-03-01T15:41:03;6.78;;;1.75;;
37771;SDS011;23610;59.380;24.642;2023-03-01T15:51:39;3.95;;;1.10;;
37771;SDS011;23610;59.380;24.642;2023-03-01T15:56:41;6.15;;;1.75;;
37771;SDS011;23610;59.380;24.642;2023-03-01T16:01:45;4.70;;;0.70;;
37771;SDS011;23610;59.380;24.642;2023-03-01T16:06:50;4.20;;;1.08;;
37771;SDS011;23610;59.380;24.642;2023-03-01T16:11:56;5.63;;;1.10;;
37771;SDS011;23610;59.380;24.642;2023-03-01T16:17:00;4.53;;;0.80;;
37771;SDS011;23610;59.380;24.642;2023-03-01T16:22:03;4.07;;;1.05;;
37771;SDS011;23610;59.380;24.642;2023-03-01T16:27:09;5.20;;;1.50;;
37771;SDS011;23610;59.380;24.642;2023-03-01T16:32:11;4.75;;;2.05;;
37771;SDS011;23610;59.380;24.642;2023-03-01T16:37:15;2.20;;;1.13;;
37771;SDS011;23610;59.380;24.642;2023-03-01T16:42:20;1.38;;;0.70;;
37771;SDS011;23610;59.380;24.642;2023-03-01T16:47:23;3.45;;;1.17;;
37771;SDS011;23610;59.380;24.642;2023-03-01T16:52:25;8.27;;;1.42;;
37771;SDS011;23610;59.380;24.642;2023-03-01T16:57:28;7.47;;;2.38;;
37771;SDS011;23610;59.380;24.642;2023-03-01T17:02:31;9.82;;;3.25;;
37771;SDS011;23610;59.380;24.642;2023-03-01T17:07:34;8.38;;;2.95;;
37771;SDS011;23610;59.380;24.642;2023-03-01T17:12:37;3.47;;;1.73;;
37771;SDS011;23610;59.380;24.642;2023-03-01T17:17:40;2.58;;;1.30;;
37771;SDS011;23610;59.380;24.642;2023-03-01T17:22:43;3.63;;;1.80;;
37771;SDS011;23610;59.380;24.642;2023-03-01T17:27:46;9.63;;;2.08;;
37771;SDS011;23610;59.380;24.642;2023-03-01T17:32:48;5.45;;;1.70;;
37771;SDS011;23610;59.380;24.642;2023-03-01T17:37:53;5.82;;;0.98;;
37771;SDS011;23610;59.380;24.642;2023-03-01T17:42:56;2.15;;;1.25;;
37771;SDS011;23610;59.380;24.642;2023-03-01T17:47:59;6.60;;;1.63;;
37771;SDS011;23610;59.380;24.642;2023-03-01T17:53:02;2.78;;;1.40;;
37771;SDS011;23610;59.380;24.642;2023-03-01T17:58:11;3.80;;;1.40;;
37771;SDS011;23610;59.380;24.642;2023-03-01T18:08:17;3.50;;;1.75;;
37771;SDS011;23610;59.380;24.642;2023-03-01T18:13:20;1.88;;;0.85;;
37771;SDS011;23610;59.380;24.642;2023-03-01T18:18:23;3.70;;;1.85;;
37771;SDS011;23610;59.380;24.642;2023-03-01T18:23:27;7.60;;;1.45;;
37771;SDS011;23610;59.380;24.642;2023-03-01T18:28:31;5.75;;;2.63;;
37771;SDS011;23610;59.380;24.642;2023-03-01T18:33:35;5.50;;;1.15;;
37771;SDS011;23610;59.380;24.642;2023-03-01T18:38:41;6.35;;;1.30;;
37771;SDS011;23610;59.380;24.642;2023-03-01T18:43:50;5.70;;;1.60;;
37771;SDS011;23610;59.380;24.642;2023-03-01T18:48:54;5.97;;;1.80;;
37771;SDS011;23610;59.380;24.642;2023-03-01T18:53:57;6.82;;;1.15;;
37771;SDS011;23610;59.380;24.642;2023-03-01T18:59:00;2.35;;;1.10;;
37771;SDS011;23610;59.380;24.642;2023-03-01T19:04:04;3.88;;;2.83;;
37771;SDS011;23610;59.380;24.642;2023-03-01T19:09:10;4.60;;;1.92;;
37771;SDS011;23610;59.380;24.642;2023-03-01T19:14:15;4.95;;;2.47;;
37771;SDS011;23610;59.380;24.642;2023-03-01T19:19:18;2.83;;;1.23;;
37771;SDS011;23610;59.380;24.642;2023-03-01T19:24:20;5.18;;;2.92;;
37771;SDS011;23610;59.380;24.642;2023-03-01T19:35:18;3.95;;;1.30;;
37771;SDS011;23610;59.380;24.642;2023-03-01T19:40:29;2.63;;;0.77;;
37771;SDS011;23610;59.380;24.642;2023-03-01T19:45:32;6.85;;;1.23;;
37771;SDS011;23610;59.380;24.642;2023-03-01T19:50:34;2.40;;;1.08;;
37771;SDS011;23610;59.380;24.642;2023-03-01T19:55:39;3.15;;;1.23;;
37771;SDS011;23610;59.380;24.642;2023-03-01T20:00:44;2.13;;;1.00;;
37771;SDS011;23610;59.380;24.642;2023-03-01T20:05:47;5.18;;;1.02;;
37771;SDS011;23610;59.380;24.642;2023-03-01T20:10:50;4.53;;;0.60;;
37771;SDS011;23610;59.380;24.642;2023-03-01T20:15:59;4.22;;;0.93;;
37771;SDS011;23610;59.380;24.642;2023-03-01T20:21:02;3.88;;;1.40;;
37771;SDS011;23610;59.380;24.642;2023-03-01T20:26:18;5.07;;;1.90;;
37771;SDS011;23610;59.380;24.642;2023-03-01T20:31:23;4.55;;;1.60;;
37771;SDS011;23610;59.380;24.642;2023-03-01T20:36:30;4.30;;;0.85;;
37771;SDS011;23610;59.380;24.642;2023-03-01T20:41:34;2.47;;;1.00;;
37771;SDS011;23610;59.380;24.642;2023-03-01T20:46:38;3.35;;;0.88;;
37771;SDS011;23610;59.380;24.642;2023-03-01T20:51:41;2.35;;;0.90;;
37771;SDS011;23610;59.380;24.642;2023-03-01T20:56:46;6.75;;;1.00;;
37771;SDS011;23610;59.380;24.642;2023-03-01T21:01:49;3.28;;;0.65;;
37771;SDS011;23610;59.380;24.642;2023-03-01T21:06:52;5.07;;;0.77;;
37771;SDS011;23610;59.380;24.642;2023-03-01T21:11:55;2.30;;;0.68;;
37771;SDS011;23610;59.380;24.642;2023-03-01T21:16:58;3.33;;;0.93;;
37771;SDS011;23610;59.380;24.642;2023-03-01T21:22:00;8.23;;;0.70;;
37771;SDS011;23610;59.380;24.642;2023-03-01T21:27:03;3.65;;;1.00;;
37771;SDS011;23610;59.380;24.642;2023-03-01T21:32:09;0.80;;;0.60;;
37771;SDS011;23610;59.380;24.642;2023-03-01T21:37:13;0.40;;;0.40;;
37771;SDS011;23610;59.380;24.642;2023-03-01T21:42:16;2.20;;;0.70;;
37771;SDS011;23610;59.380;24.642;2023-03-01T21:47:19;4.65;;;0.70;;
37771;SDS011;23610;59.380;24.642;2023-03-01T21:52:21;3.40;;;0.85;;
37771;SDS011;23610;59.380;24.642;2023-03-01T21:57:26;4.93;;;1.67;;
37771;SDS011;23610;59.380;24.642;2023-03-01T22:02:29;4.93;;;2.08;;
37771;SDS011;23610;59.380;24.642;2023-03-01T22:07:32;2.72;;;1.50;;
37771;SDS011;23610;59.380;24.642;2023-03-01T22:12:35;6.70;;;0.80;;
37771;SDS011;23610;59.380;24.642;2023-03-01T22:17:37;3.05;;;1.08;;
37771;SDS011;23610;59.380;24.642;2023-03-01T22:22:40;3.95;;;2.33;;
37771;SDS011;23610;59.380;24.642;2023-03-01T22:27:43;9.40;;;5.40;;
37771;SDS011;23610;59.380;24.642;2023-03-01T22:32:46;10.98;;;5.05;;
37771;SDS011;23610;59.380;24.642;2023-03-01T22:37:49;10.02;;;5.47;;
37771;SDS011;23610;59.380;24.642;2023-03-01T22:42:51;8.27;;;4.97;;
37771;SDS011;23610;59.380;24.642;2023-03-01T22:47:54;19.45;;;8.13;;
37771;SDS011;23610;59.380;24.642;2023-03-01T22:52:57;16.48;;;6.55;;
37771;SDS011;23610;59.380;24.642;2023-03-01T22:58:02;29.67;;;11.45;;
37771;SDS011;23610;59.380;24.642;2023-03-01T23:03:05;65.30;;;16.00;;
37771;SDS011;23610;59.380;24.642;2023-03-01T23:08:11;26.80;;;7.95;;
37771;SDS011;23610;59.380;24.642;2023-03-01T23:13:15;12.05;;;3.35;;
37771;SDS011;23610;59.380;24.642;2023-03-01T23:18:17;13.77;;;4.25;;
37771;SDS011;23610;59.380;24.642;2023-03-01T23:23:20;7.57;;;2.22;;
37771;SDS011;23610;59.380;24.642;2023-03-01T23:28:23;29.92;;;10.25;;
37771;SDS011;23610;59.380;24.642;2023-03-01T23:38:38;7.95;;;3.03;;
37771;SDS011;23610;59.380;24.642;2023-03-01T23:43:45;18.10;;;5.20;;
37771;SDS011;23610;59.380;24.642;2023-03-01T23:48:49;8.45;;;2.35;;
37771;SDS011;23610;59.380;24.642;2023-03-01T23:53:56;6.63;;;1.30;;
37771;SDS011;23610;59.380;24.642;2023-03-01T23:59:12;5.35;;;0.82;;
